Angora, Nebraska
Current Conditions -  °F | °C
As of 8:53 AM on Thursday 18 Dec 2014 (Local Time) from KAIA Reporting Station
Clear Clear  
Wind Chill: -3°   Ceiling: Unl
Heat Index:   Visibility: 10mi
Dew Point:   Wind: 5mph
Humidity: 87%   Direction: 240°WSW
Pressure: 30.03"   Gusts: NA
Location:  41.85°N, 103.13°W
Report Text: KAIA 181553Z AUTO 24004KT 10SM CLR M14/M16 A3003 RMK AO2 SLP226 I1001 T11441161
Loading
Personal Weather Stations






























Interactive Weather Map New forecast layout! Learn more

10-Day Weather Forecast

Advertisements
Track Severe Weather on mobile